Time;durP1;ratioP1;P1;durP2;ratioP2;P2;SDS_P1;SDS_P2;PMS_P1;PMS_P2;Temp;Humidity;BMP_temperature;BMP_pressure;BME280_temperature;BME280_humidity;BME280_pressure;Samples;Min_cycle;Max_cycle;Signal;HPM_P1;HPM_P2
2021/03/13 00:00:15;;;;;;;0.90;0.60;;;6.50;99.90;;;;;;5077120;28;20447;-52
2021/03/13 00:02:45;;;;;;;0.88;0.80;;;6.50;99.90;;;;;;5088044;28;20582;-52
2021/03/13 00:05:23;;;;;;;1.35;0.60;;;6.60;99.90;;;;;;5072722;28;20184;-52
2021/03/13 00:07:49;;;;;;;1.63;0.90;;;6.70;99.90;;;;;;5079612;28;20308;-52
2021/03/13 00:10:15;;;;;;;1.42;0.77;;;6.60;99.90;;;;;;5071706;28;20184;-51
2021/03/13 00:12:41;;;;;;;0.80;0.70;;;6.90;99.90;;;;;;5082020;28;20244;-52
2021/03/13 00:15:07;;;;;;;1.77;1.20;;;6.60;99.90;;;;;;5072560;28;20191;-51
2021/03/13 00:17:32;;;;;;;1.40;1.08;;;7.20;99.90;;;;;;5084519;28;20227;-52
2021/03/13 00:19:58;;;;;;;1.83;1.30;;;6.60;99.90;;;;;;5083843;28;20261;-51
2021/03/13 00:22:24;;;;;;;3.63;1.10;;;6.70;99.90;;;;;;5079029;28;20203;-51
2021/03/13 00:24:50;;;;;;;2.07;1.10;;;6.70;99.90;;;;;;5071445;28;20788;-52
2021/03/13 00:27:15;;;;;;;2.80;1.70;;;6.80;99.90;;;;;;5071642;28;20690;-52
2021/03/13 00:29:41;;;;;;;3.53;2.03;;;6.80;99.90;;;;;;5080259;28;20267;-53
2021/03/13 00:32:07;;;;;;;2.23;1.30;;;6.90;99.90;;;;;;5087598;28;20494;-52
2021/03/13 00:34:32;;;;;;;2.83;2.60;;;6.70;99.90;;;;;;5090451;28;20721;-52
2021/03/13 00:36:58;;;;;;;0.93;0.83;;;6.90;99.90;;;;;;5087120;28;20211;-52
2021/03/13 00:39:23;;;;;;;2.80;1.20;;;7.00;99.90;;;;;;5071349;28;20192;-52
2021/03/13 00:41:49;;;;;;;1.70;1.00;;;7.10;99.90;;;;;;5089041;28;20703;-53
2021/03/13 00:44:15;;;;;;;4.07;1.37;;;7.00;99.90;;;;;;5070936;28;20287;-53
2021/03/13 00:46:43;;;;;;;1.43;1.00;;;7.00;99.90;;;;;;5081991;28;20236;-52
2021/03/13 00:49:08;;;;;;;2.90;2.50;;;6.90;99.90;;;;;;5078761;28;20183;-52
2021/03/13 00:51:34;;;;;;;1.00;0.90;;;7.10;99.90;;;;;;5075154;28;20672;-52
2021/03/13 00:54:00;;;;;;;1.00;0.80;;;6.90;99.90;;;;;;5085210;28;20199;-52
2021/03/13 00:56:25;;;;;;;1.13;0.70;;;7.20;99.90;;;;;;5089465;28;20240;-52
2021/03/13 00:58:51;;;;;;;1.13;1.00;;;6.90;99.90;;;;;;5083653;28;20220;-52
2021/03/13 01:01:17;;;;;;;1.10;1.00;;;7.10;99.90;;;;;;5072842;28;20319;-52
2021/03/13 01:03:42;;;;;;;4.77;2.00;;;7.00;99.90;;;;;;5082104;28;20200;-52
2021/03/13 01:06:08;;;;;;;1.43;1.27;;;7.10;99.90;;;;;;5073148;28;20191;-52
2021/03/13 01:08:34;;;;;;;0.80;0.80;;;7.10;99.90;;;;;;5079190;28;20304;-52
2021/03/13 01:11:00;;;;;;;2.80;1.00;;;7.00;99.90;;;;;;5090233;28;20179;-53
2021/03/13 01:13:26;;;;;;;0.93;0.70;;;7.00;99.90;;;;;;5078086;28;20833;-52
2021/03/13 01:15:51;;;;;;;1.20;0.70;;;6.70;99.90;;;;;;5074476;28;20241;-53
2021/03/13 01:18:19;;;;;;;1.07;0.60;;;6.70;99.90;;;;;;5071912;28;20229;-52
2021/03/13 01:20:46;;;;;;;0.60;0.40;;;6.80;99.90;;;;;;5075315;28;20227;-52
2021/03/13 01:23:12;;;;;;;0.60;0.50;;;6.70;99.90;;;;;;5071120;28;20205;-52
2021/03/13 01:25:38;;;;;;;0.60;0.50;;;6.80;99.90;;;;;;5079466;28;20183;-52
2021/03/13 01:28:03;;;;;;;0.60;0.50;;;6.60;99.90;;;;;;5074223;28;20525;-52
2021/03/13 01:30:29;;;;;;;1.23;0.60;;;6.70;99.90;;;;;;5080228;28;20277;-52
2021/03/13 01:32:55;;;;;;;0.60;0.50;;;6.60;99.90;;;;;;5079551;28;20437;-53
2021/03/13 01:35:21;;;;;;;1.60;1.10;;;6.50;99.90;;;;;;5080540;28;20202;-52
2021/03/13 01:37:48;;;;;;;0.70;0.55;;;6.80;99.90;;;;;;5070139;28;20282;-52
2021/03/13 01:40:17;;;;;;;1.27;0.70;;;6.50;99.90;;;;;;5078409;28;20189;-52
2021/03/13 01:42:47;;;;;;;0.70;0.50;;;6.50;99.90;;;;;;5079270;28;20870;-52
2021/03/13 01:45:15;;;;;;;0.70;0.60;;;6.60;99.90;;;;;;5083686;28;20701;-52
2021/03/13 01:47:42;;;;;;;2.08;0.80;;;6.70;99.90;;;;;;5089554;28;20246;-52
2021/03/13 01:50:10;;;;;;;0.70;0.50;;;6.50;99.90;;;;;;5081677;28;20187;-52
2021/03/13 01:52:36;;;;;;;0.70;0.60;;;6.60;99.90;;;;;;5084720;28;20183;-52
2021/03/13 01:55:07;;;;;;;0.80;0.70;;;6.30;99.90;;;;;;5076369;28;20245;-52
2021/03/13 01:57:33;;;;;;;0.90;0.65;;;6.40;99.90;;;;;;5084025;28;21002;-52
2021/03/13 01:59:58;;;;;;;1.03;0.93;;;6.40;99.90;;;;;;5082267;28;20208;-52
2021/03/13 02:02:24;;;;;;;1.40;0.70;;;6.50;99.90;;;;;;5084304;28;20227;-52
2021/03/13 02:04:50;;;;;;;1.53;0.80;;;6.40;99.90;;;;;;5086749;28;20314;-52
2021/03/13 02:07:40;;;;;;;2.33;1.00;;;6.60;99.90;;;;;;5090979;28;20282;-52
2021/03/13 02:10:21;;;;;;;1.70;0.85;;;6.60;99.90;;;;;;5077493;28;20195;-53
2021/03/13 02:13:14;;;;;;;1.45;1.00;;;6.50;99.90;;;;;;5084044;28;20184;-52
2021/03/13 02:15:57;;;;;;;0.95;0.75;;;6.70;99.90;;;;;;5069996;28;20260;-52
2021/03/13 02:18:36;;;;;;;1.10;0.95;;;6.60;99.90;;;;;;5082058;28;20455;-52
2021/03/13 02:21:34;;;;;;;2.25;0.80;;;6.50;99.90;;;;;;5071507;28;20184;-51
2021/03/13 02:24:27;;;;;;;2.60;1.08;;;6.70;99.90;;;;;;5060266;28;20224;-52
2021/03/13 02:27:14;;;;;;;2.33;1.25;;;6.60;99.90;;;;;;5070100;28;20235;-53
2021/03/13 02:29:40;;;;;;;1.88;1.05;;;6.40;99.90;;;;;;5080710;28;20177;-52
2021/03/13 02:32:10;;;;;;;1.02;0.93;;;6.50;99.90;;;;;;5070515;28;20181;-52
2021/03/13 02:34:39;;;;;;;1.38;1.15;;;6.50;99.90;;;;;;5085779;28;20267;-53
2021/03/13 02:37:14;;;;;;;1.20;1.00;;;6.50;99.90;;;;;;5086610;28;20572;-52
2021/03/13 02:39:42;;;;;;;2.05;1.10;;;6.50;99.90;;;;;;5078533;28;20194;-52
2021/03/13 02:42:09;;;;;;;1.15;0.80;;;6.70;99.90;;;;;;5069489;28;20191;-52
2021/03/13 02:44:37;;;;;;;1.17;1.08;;;6.40;99.90;;;;;;5082918;28;20242;-52
2021/03/13 02:47:06;;;;;;;2.05;1.33;;;6.60;99.90;;;;;;5077880;28;20488;-52
2021/03/13 02:49:33;;;;;;;1.35;1.08;;;6.40;99.90;;;;;;5077462;28;20470;-52
2021/03/13 02:52:00;;;;;;;5.80;1.73;;;6.40;99.90;;;;;;5078613;28;20176;-51
2021/03/13 02:54:26;;;;;;;1.50;1.00;;;6.60;99.90;;;;;;5073908;28;20204;-52
2021/03/13 02:56:53;;;;;;;3.05;1.30;;;6.40;99.90;;;;;;5071548;28;20239;-52
2021/03/13 02:59:20;;;;;;;1.52;1.00;;;6.60;99.90;;;;;;5087936;28;20649;-52
2021/03/13 03:01:53;;;;;;;1.60;1.50;;;6.50;99.90;;;;;;5086392;28;20187;-52
2021/03/13 03:04:23;;;;;;;2.65;1.10;;;6.80;99.90;;;;;;5081733;28;20275;-52
2021/03/13 03:06:52;;;;;;;4.05;1.10;;;6.80;99.90;;;;;;5077141;28;20173;-52
2021/03/13 03:09:20;;;;;;;1.27;1.00;;;6.60;99.90;;;;;;5069535;28;20534;-52
2021/03/13 03:11:46;;;;;;;2.40;1.40;;;6.80;99.90;;;;;;5084171;28;20184;-52
2021/03/13 03:14:15;;;;;;;4.03;1.53;;;6.60;99.90;;;;;;5069632;28;20244;-52
2021/03/13 03:16:45;;;;;;;2.10;1.33;;;6.80;99.90;;;;;;5080236;28;20551;-52
2021/03/13 03:19:13;;;;;;;2.00;1.20;;;6.70;99.90;;;;;;5087269;28;20608;-52
2021/03/13 03:21:40;;;;;;;1.52;1.10;;;6.90;99.90;;;;;;5087284;28;20682;-52
2021/03/13 03:24:10;;;;;;;1.88;1.00;;;6.90;99.90;;;;;;5087098;28;20595;-52
2021/03/13 03:26:36;;;;;;;2.70;1.20;;;6.90;99.90;;;;;;5071920;28;20189;-52
2021/03/13 03:29:02;;;;;;;2.17;1.37;;;7.00;99.90;;;;;;5076757;28;20666;-52
2021/03/13 03:31:28;;;;;;;2.28;1.10;;;7.30;99.90;;;;;;5068003;28;20435;-52
2021/03/13 03:33:53;;;;;;;1.63;0.93;;;7.00;99.90;;;;;;5067830;28;20188;-53
2021/03/13 03:36:19;;;;;;;3.80;1.50;;;7.10;99.90;;;;;;5067804;28;20453;-52
2021/03/13 03:38:45;;;;;;;2.30;1.27;;;7.40;99.90;;;;;;5081546;28;20295;-52
2021/03/13 03:41:11;;;;;;;2.70;1.07;;;7.00;99.90;;;;;;5074030;28;20596;-52
2021/03/13 03:43:50;;;;;;;1.63;0.90;;;7.30;99.90;;;;;;5069578;28;20523;-52
2021/03/13 03:46:17;;;;;;;3.70;1.00;;;7.30;99.90;;;;;;5087672;28;20503;-53
2021/03/13 03:48:45;;;;;;;1.10;0.80;;;7.20;99.90;;;;;;5087859;28;20202;-52
2021/03/13 03:51:14;;;;;;;3.15;1.15;;;7.40;99.90;;;;;;5075848;28;20181;-52
2021/03/13 03:53:42;;;;;;;3.88;1.10;;;7.60;99.90;;;;;;5071121;28;20220;-53
2021/03/13 03:56:08;;;;;;;4.40;0.95;;;7.50;99.90;;;;;;5068799;28;20193;-53
2021/03/13 03:58:44;;;;;;;1.20;0.90;;;7.50;99.90;;;;;;5081422;28;20220;-52
2021/03/13 04:01:14;;;;;;;2.15;1.00;;;7.50;99.90;;;;;;5079119;28;20321;-52
2021/03/13 04:03:51;;;;;;;1.20;0.75;;;7.60;99.90;;;;;;5088031;28;20286;-52
2021/03/13 04:06:18;;;;;;;0.80;0.80;;;7.60;99.90;;;;;;5073561;28;20271;-52
2021/03/13 04:08:47;;;;;;;2.08;1.05;;;7.70;99.90;;;;;;5081798;28;20223;-52
2021/03/13 04:11:18;;;;;;;3.35;1.00;;;7.70;99.90;;;;;;5074518;28;20246;-52
2021/03/13 04:13:47;;;;;;;1.73;1.00;;;7.70;99.90;;;;;;5074343;28;20192;-52
2021/03/13 04:16:13;;;;;;;5.72;1.27;;;7.90;99.90;;;;;;5082343;28;20206;-51
2021/03/13 04:18:40;;;;;;;2.45;1.05;;;7.80;99.90;;;;;;5081648;28;20204;-52
2021/03/13 04:21:06;;;;;;;2.65;0.90;;;8.00;99.90;;;;;;5080990;28;20192;-52
2021/03/13 04:23:36;;;;;;;2.17;0.90;;;7.80;99.90;;;;;;5075332;28;20226;-52
2021/03/13 04:26:02;;;;;;;1.08;0.98;;;7.90;99.90;;;;;;5071412;28;20234;-52
2021/03/13 04:28:28;;;;;;;2.28;1.00;;;8.00;99.90;;;;;;5077192;28;20231;-52
2021/03/13 04:30:55;;;;;;;1.63;1.20;;;7.70;99.90;;;;;;5079358;28;20638;-52
2021/03/13 04:33:21;;;;;;;1.70;1.00;;;7.90;99.90;;;;;;5076298;28;20292;-52
2021/03/13 04:35:49;;;;;;;1.60;1.00;;;8.20;99.90;;;;;;5080982;28;20189;-52
2021/03/13 04:38:20;;;;;;;1.05;0.70;;;8.20;99.90;;;;;;5068087;28;20205;-52
2021/03/13 04:40:47;;;;;;;2.80;0.80;;;8.00;99.90;;;;;;5085172;28;20193;-51
2021/03/13 04:43:14;;;;;;;1.00;0.82;;;8.00;99.90;;;;;;5086221;28;21090;-52
2021/03/13 04:45:41;;;;;;;1.60;0.80;;;7.90;99.90;;;;;;5079520;28;20226;-51
2021/03/13 04:48:08;;;;;;;1.10;0.80;;;8.20;99.90;;;;;;5078489;28;20204;-52
2021/03/13 04:50:35;;;;;;;1.50;0.90;;;8.00;99.90;;;;;;5090052;28;20272;-51
2021/03/13 04:53:01;;;;;;;1.50;0.82;;;8.20;99.90;;;;;;5077101;28;20185;-51
2021/03/13 04:55:26;;;;;;;2.63;0.70;;;8.30;99.90;;;;;;5075384;28;20207;-52
2021/03/13 04:57:54;;;;;;;1.63;0.90;;;8.30;99.90;;;;;;5080843;28;20210;-52
2021/03/13 05:00:20;;;;;;;0.95;0.70;;;8.20;99.90;;;;;;5085141;28;20189;-52
2021/03/13 05:02:46;;;;;;;1.10;1.00;;;7.90;99.90;;;;;;5086773;28;20188;-52
2021/03/13 05:05:12;;;;;;;3.03;0.73;;;8.10;99.90;;;;;;5086449;28;20194;-51
2021/03/13 05:07:38;;;;;;;2.53;0.80;;;7.80;99.90;;;;;;5080991;28;20399;-52
2021/03/13 05:10:05;;;;;;;1.67;0.77;;;7.90;99.90;;;;;;5088310;28;20441;-52
2021/03/13 05:12:31;;;;;;;1.40;0.70;;;7.90;99.90;;;;;;5089286;28;20188;-51
2021/03/13 05:14:57;;;;;;;2.10;0.83;;;7.90;99.90;;;;;;5089664;28;20605;-52
2021/03/13 05:17:22;;;;;;;1.90;0.70;;;8.30;99.90;;;;;;5086991;28;20249;-51
2021/03/13 05:19:48;;;;;;;1.53;1.00;;;8.00;99.90;;;;;;5090418;28;20697;-51
2021/03/13 05:22:13;;;;;;;2.67;1.20;;;8.00;99.90;;;;;;5087610;28;20184;-52
2021/03/13 05:24:39;;;;;;;1.47;0.70;;;8.00;99.90;;;;;;5085575;28;20681;-52
2021/03/13 05:27:05;;;;;;;2.37;0.90;;;7.90;99.90;;;;;;5081581;28;20617;-51
2021/03/13 05:29:31;;;;;;;1.87;1.73;;;8.30;99.90;;;;;;5090427;28;20192;-52
2021/03/13 05:31:56;;;;;;;1.63;0.80;;;8.10;99.90;;;;;;5078969;28;20446;-51
2021/03/13 05:34:22;;;;;;;0.93;0.70;;;8.30;99.90;;;;;;5070194;28;20181;-52
2021/03/13 05:36:48;;;;;;;2.40;0.70;;;8.40;99.90;;;;;;5069839;28;20200;-51
2021/03/13 05:39:13;;;;;;;2.33;0.90;;;8.30;99.90;;;;;;5070802;28;20177;-52
2021/03/13 05:41:42;;;;;;;1.83;0.70;;;8.20;99.90;;;;;;5069851;28;20185;-52
2021/03/13 05:44:08;;;;;;;1.77;1.00;;;8.30;99.90;;;;;;5083473;28;20216;-52
2021/03/13 05:46:37;;;;;;;1.80;0.60;;;8.10;99.90;;;;;;5073265;28;20597;-52
2021/03/13 05:49:08;;;;;;;0.90;0.60;;;8.40;99.90;;;;;;5070059;28;20192;-51
2021/03/13 05:51:44;;;;;;;3.53;0.90;;;8.50;99.90;;;;;;5079337;28;20255;-52
2021/03/13 05:54:13;;;;;;;1.65;1.02;;;8.50;99.90;;;;;;5080920;28;20238;-51
2021/03/13 05:56:39;;;;;;;1.13;0.82;;;8.50;99.90;;;;;;5085534;28;20184;-52
2021/03/13 05:59:06;;;;;;;1.65;0.80;;;8.60;99.90;;;;;;5071567;28;20740;-52
2021/03/13 06:01:32;;;;;;;1.55;0.77;;;8.40;99.90;;;;;;5074487;28;20194;-51
2021/03/13 06:03:58;;;;;;;1.27;0.93;;;8.70;99.90;;;;;;5080361;28;20201;-52
2021/03/13 06:06:25;;;;;;;2.13;0.70;;;8.90;99.90;;;;;;5076014;28;20180;-51
2021/03/13 06:08:51;;;;;;;3.58;0.80;;;8.70;99.90;;;;;;5088746;28;20803;-51
2021/03/13 06:11:18;;;;;;;4.00;0.80;;;8.80;99.90;;;;;;5075979;28;20181;-52
2021/03/13 06:13:44;;;;;;;2.50;1.00;;;8.90;99.90;;;;;;5086759;28;20188;-52
2021/03/13 06:16:10;;;;;;;3.37;0.80;;;8.90;99.90;;;;;;5081621;28;20184;-52
2021/03/13 06:18:48;;;;;;;1.20;1.00;;;8.90;99.90;;;;;;5088587;28;20550;-52
2021/03/13 06:21:25;;;;;;;2.88;0.82;;;8.90;99.90;;;;;;5081458;28;20240;-52
2021/03/13 06:24:03;;;;;;;0.90;0.80;;;8.60;99.90;;;;;;5072104;28;20701;-52
2021/03/13 06:26:50;;;;;;;1.50;0.80;;;8.70;99.90;;;;;;5086202;28;20201;-52
2021/03/13 06:29:16;;;;;;;1.50;0.80;;;8.70;99.90;;;;;;5077550;28;20177;-51
2021/03/13 06:31:41;;;;;;;2.83;1.03;;;8.80;99.90;;;;;;5077203;28;20192;-52
2021/03/13 06:34:07;;;;;;;2.20;1.00;;;8.90;99.80;;;;;;5080395;28;20202;-52
2021/03/13 06:36:33;;;;;;;2.60;0.80;;;9.00;99.20;;;;;;5076101;28;20181;-51
2021/03/13 06:38:58;;;;;;;2.83;1.10;;;9.00;98.90;;;;;;5079654;28;20221;-52
2021/03/13 06:41:25;;;;;;;2.40;1.33;;;9.40;99.10;;;;;;5085129;28;20288;-52
2021/03/13 06:43:56;;;;;;;3.00;0.80;;;9.00;98.90;;;;;;5077031;28;20200;-52
2021/03/13 06:46:28;;;;;;;4.10;0.85;;;9.10;98.70;;;;;;5069840;28;20181;-52
2021/03/13 06:48:57;;;;;;;1.80;1.00;;;9.30;98.40;;;;;;5084310;28;20205;-52
2021/03/13 06:51:22;;;;;;;3.05;0.70;;;9.60;98.10;;;;;;5084698;28;20172;-51
2021/03/13 06:54:03;;;;;;;1.67;1.10;;;9.50;97.60;;;;;;5073302;28;20428;-52
2021/03/13 06:56:31;;;;;;;3.00;0.75;;;9.40;97.50;;;;;;5078533;28;20215;-52
2021/03/13 06:58:57;;;;;;;1.40;0.90;;;9.50;97.10;;;;;;5075740;28;20211;-52
2021/03/13 07:01:31;;;;;;;7.38;1.30;;;9.70;96.90;;;;;;5086837;28;20185;-52
2021/03/13 07:03:58;;;;;;;1.58;0.85;;;9.70;96.80;;;;;;5074002;28;20209;-52
2021/03/13 07:06:24;;;;;;;3.63;0.90;;;9.80;96.30;;;;;;5086369;28;20643;-52
2021/03/13 07:08:52;;;;;;;2.70;0.90;;;9.70;96.10;;;;;;5079618;28;20220;-52
2021/03/13 07:11:24;;;;;;;3.75;0.77;;;9.90;96.20;;;;;;5086814;28;20200;-52
2021/03/13 07:13:55;;;;;;;1.35;0.73;;;10.30;95.80;;;;;;5077332;28;20181;-54
2021/03/13 07:16:35;;;;;;;1.98;0.80;;;10.10;94.70;;;;;;5079847;28;20189;-54
2021/03/13 07:19:08;;;;;;;1.52;0.80;;;10.40;94.20;;;;;;5080035;28;20476;-52
2021/03/13 07:21:43;;;;;;;0.90;0.80;;;10.30;94.20;;;;;;5072514;28;20685;-51
2021/03/13 07:24:11;;;;;;;1.48;0.80;;;10.60;94.30;;;;;;5097547;28;20267;-52
2021/03/13 07:26:45;;;;;;;2.55;0.82;;;10.70;93.20;;;;;;5079769;28;20220;-52
2021/03/13 07:29:13;;;;;;;1.17;0.90;;;10.80;93.10;;;;;;5078273;28;20180;-52
2021/03/13 07:31:41;;;;;;;1.60;0.70;;;10.90;92.80;;;;;;5077797;28;20180;-52
2021/03/13 07:34:18;;;;;;;2.00;0.80;;;10.90;92.70;;;;;;5080415;28;20541;-52
2021/03/13 07:36:47;;;;;;;1.65;0.80;;;11.10;92.20;;;;;;5097449;28;20227;-52
2021/03/13 07:39:18;;;;;;;1.40;0.80;;;11.30;91.10;;;;;;5077354;28;20187;-55
2021/03/13 07:41:58;;;;;;;2.58;0.75;;;11.60;90.50;;;;;;5080557;28;20194;-55
2021/03/13 07:44:24;;;;;;;1.90;0.75;;;11.80;90.00;;;;;;5085849;28;20207;-55
2021/03/13 07:46:50;;;;;;;1.27;0.80;;;11.80;89.30;;;;;;5087079;28;20247;-54
2021/03/13 07:49:21;;;;;;;3.40;1.10;;;11.90;89.70;;;;;;5078050;28;20443;-54
2021/03/13 07:51:47;;;;;;;1.13;0.70;;;11.70;90.00;;;;;;5086188;28;20706;-54
2021/03/13 07:54:13;;;;;;;0.87;0.70;;;11.70;89.40;;;;;;5081446;28;20229;-55
2021/03/13 07:56:41;;;;;;;1.27;0.82;;;11.40;89.60;;;;;;5079073;28;20280;-55
2021/03/13 07:59:12;;;;;;;2.13;0.75;;;11.80;88.40;;;;;;5085232;28;20190;-54
2021/03/13 08:01:53;;;;;;;0.95;0.65;;;11.80;88.20;;;;;;5083116;28;20193;-54
2021/03/13 08:04:37;;;;;;;1.27;0.65;;;11.80;88.10;;;;;;5081632;28;20527;-53
2021/03/13 08:07:04;;;;;;;2.25;0.80;;;12.10;88.00;;;;;;5076751;28;20202;-54
2021/03/13 08:09:29;;;;;;;1.55;0.80;;;11.60;87.10;;;;;;5083027;28;20230;-55
2021/03/13 08:11:55;;;;;;;2.63;0.67;;;12.20;87.90;;;;;;5079949;28;20190;-54
2021/03/13 08:14:32;;;;;;;1.47;0.90;;;11.90;87.90;;;;;;5085940;28;20521;-54
2021/03/13 08:17:16;;;;;;;0.90;0.50;;;11.70;87.30;;;;;;5074484;28;20205;-53
2021/03/13 08:19:45;;;;;;;0.80;0.50;;;11.50;86.30;;;;;;5083937;28;20214;-53
2021/03/13 08:22:23;;;;;;;1.00;0.70;;;11.40;86.70;;;;;;5078065;28;20178;-55
2021/03/13 08:24:53;;;;;;;1.52;0.82;;;11.60;86.80;;;;;;5067954;28;20236;-56
2021/03/13 08:27:40;;;;;;;2.53;1.00;;;11.50;86.40;;;;;;5084834;28;20210;-55
2021/03/13 08:30:26;;;;;;;2.75;0.77;;;11.40;87.60;;;;;;5077282;28;20197;-55
2021/03/13 08:33:03;;;;;;;0.80;0.60;;;11.40;86.20;;;;;;5084288;28;20583;-53
2021/03/13 08:35:45;;;;;;;1.27;0.73;;;11.30;85.70;;;;;;5085760;28;20177;-53
2021/03/13 08:38:12;;;;;;;1.55;1.45;;;11.30;86.30;;;;;;5076004;28;20419;-53
2021/03/13 08:40:44;;;;;;;0.70;0.60;;;11.30;85.80;;;;;;5088653;28;20553;-54
2021/03/13 08:43:32;;;;;;;1.73;0.70;;;11.00;86.40;;;;;;5074329;28;20280;-54
2021/03/13 08:45:58;;;;;;;1.00;0.70;;;11.20;85.00;;;;;;5078527;28;20278;-54
2021/03/13 08:48:56;;;;;;;2.20;0.73;;;11.10;84.60;;;;;;5083520;28;20296;-54
2021/03/13 08:51:21;;;;;;;1.50;0.85;;;11.70;83.70;;;;;;5081533;28;20184;-54
2021/03/13 08:53:47;;;;;;;1.57;0.73;;;12.10;81.50;;;;;;5082180;28;20251;-54
2021/03/13 08:56:44;;;;;;;1.03;0.70;;;12.10;81.10;;;;;;5080110;28;20186;-55
2021/03/13 08:59:12;;;;;;;1.45;0.70;;;12.10;80.30;;;;;;5075929;28;20544;-59
2021/03/13 09:01:40;;;;;;;1.15;0.75;;;12.40;79.80;;;;;;5071130;28;20184;-56
2021/03/13 09:04:06;;;;;;;0.80;0.70;;;12.20;79.00;;;;;;5083559;28;20294;-52
2021/03/13 09:06:32;;;;;;;1.70;0.70;;;12.20;79.30;;;;;;5071725;28;20715;-54
2021/03/13 09:09:15;;;;;;;1.00;0.70;;;12.10;77.60;;;;;;5079149;28;20461;-54
2021/03/13 09:11:42;;;;;;;3.70;1.35;;;12.60;78.50;;;;;;5075388;28;20198;-54
2021/03/13 09:14:09;;;;;;;1.83;1.00;;;12.50;77.70;;;;;;5080242;28;20286;-53
2021/03/13 09:16:40;;;;;;;1.55;0.88;;;12.20;77.50;;;;;;5073554;28;20210;-55
2021/03/13 09:19:14;;;;;;;1.70;0.80;;;12.50;77.00;;;;;;5077892;28;20662;-54
2021/03/13 09:21:43;;;;;;;3.05;1.25;;;12.80;76.80;;;;;;5079269;28;20566;-54
2021/03/13 09:24:11;;;;;;;1.27;0.88;;;12.70;75.90;;;;;;5080581;28;20223;-53
2021/03/13 09:26:37;;;;;;;0.90;0.60;;;12.90;75.70;;;;;;5081165;28;20188;-51
2021/03/13 09:29:03;;;;;;;1.70;0.97;;;12.70;75.80;;;;;;5074101;28;20203;-52
2021/03/13 09:31:29;;;;;;;1.00;0.80;;;12.30;75.20;;;;;;5080516;28;20445;-52
2021/03/13 09:34:12;;;;;;;1.47;0.77;;;12.50;76.30;;;;;;5077886;28;20546;-53
2021/03/13 09:36:37;;;;;;;1.17;0.60;;;12.60;75.60;;;;;;5079658;28;20657;-53
2021/03/13 09:39:03;;;;;;;2.83;0.70;;;12.70;75.20;;;;;;5076237;28;20180;-51
2021/03/13 09:41:29;;;;;;;3.13;0.60;;;12.70;75.20;;;;;;5073662;28;20184;-51
2021/03/13 09:43:55;;;;;;;1.53;1.30;;;13.00;75.00;;;;;;5079548;28;20215;-52
2021/03/13 09:46:20;;;;;;;0.80;0.60;;;12.90;75.10;;;;;;5070495;28;20275;-53
2021/03/13 09:48:46;;;;;;;1.33;0.80;;;13.10;74.20;;;;;;5081224;28;20207;-53
2021/03/13 09:51:12;;;;;;;2.23;0.97;;;13.00;73.90;;;;;;5077698;28;20510;-52
2021/03/13 09:53:39;;;;;;;1.67;0.70;;;13.00;73.40;;;;;;5075571;28;20545;-52
2021/03/13 09:56:06;;;;;;;2.20;1.08;;;13.40;73.10;;;;;;5069332;28;21041;-54
2021/03/13 09:58:31;;;;;;;1.55;0.70;;;13.10;72.90;;;;;;5068986;28;20211;-51
2021/03/13 10:01:03;;;;;;;0.87;0.60;;;13.20;73.60;;;;;;5077178;28;20172;-51
2021/03/13 10:03:29;;;;;;;1.45;0.60;;;13.10;74.00;;;;;;5082282;28;20196;-51
2021/03/13 10:05:56;;;;;;;1.00;0.70;;;13.00;74.10;;;;;;5079253;28;20194;-52
2021/03/13 10:08:33;;;;;;;1.45;0.70;;;12.90;74.40;;;;;;5076949;28;20461;-50
2021/03/13 10:11:02;;;;;;;1.92;0.70;;;13.00;75.50;;;;;;5076945;28;20193;-51
2021/03/13 10:13:29;;;;;;;0.93;0.60;;;12.90;75.80;;;;;;5075750;28;20652;-51
2021/03/13 10:15:54;;;;;;;1.63;0.70;;;12.60;75.50;;;;;;5075108;28;20184;-52
2021/03/13 10:18:26;;;;;;;0.83;0.70;;;12.50;75.80;;;;;;5079550;28;20217;-52
2021/03/13 10:20:54;;;;;;;0.70;0.70;;;12.40;75.60;;;;;;5083362;28;20353;-52
2021/03/13 10:23:24;;;;;;;1.73;0.75;;;12.50;76.40;;;;;;5077411;28;20211;-55
2021/03/13 10:26:12;;;;;;;0.88;0.68;;;12.60;77.30;;;;;;5081438;28;20254;-53
2021/03/13 10:28:43;;;;;;;1.58;0.57;;;12.40;76.90;;;;;;5080985;28;20310;-52
2021/03/13 10:31:16;;;;;;;0.80;0.60;;;12.50;76.30;;;;;;5077495;28;20202;-52
2021/03/13 10:33:43;;;;;;;3.10;0.70;;;12.60;77.10;;;;;;5084292;28;20305;-52
2021/03/13 10:36:10;;;;;;;1.17;0.70;;;12.60;77.30;;;;;;5074819;28;20186;-54
2021/03/13 10:38:39;;;;;;;1.13;0.80;;;12.50;76.70;;;;;;5086394;28;20206;-53
2021/03/13 10:41:10;;;;;;;1.65;0.80;;;12.40;77.30;;;;;;5088098;28;20278;-54
2021/03/13 10:43:38;;;;;;;0.98;0.90;;;12.50;77.40;;;;;;5077145;28;20638;-53
2021/03/13 10:46:19;;;;;;;0.70;0.60;;;12.20;76.50;;;;;;5078503;28;20244;-55
2021/03/13 10:48:47;;;;;;;0.68;0.52;;;12.40;77.30;;;;;;5070918;28;20689;-56
2021/03/13 10:51:26;;;;;;;1.63;1.00;;;12.30;77.30;;;;;;5076824;28;20456;-52
2021/03/13 10:53:52;;;;;;;1.13;0.90;;;12.60;77.60;;;;;;5072520;28;20206;-52
2021/03/13 10:56:19;;;;;;;2.35;1.58;;;12.60;77.40;;;;;;5082394;28;20215;-52
2021/03/13 10:58:57;;;;;;;1.88;0.70;;;12.40;76.80;;;;;;5087587;28;20246;-52
2021/03/13 11:01:24;;;;;;;1.20;1.05;;;12.10;76.40;;;;;;5074271;28;20183;-53
2021/03/13 11:03:54;;;;;;;1.25;0.70;;;12.10;77.10;;;;;;5074007;28;20820;-55
2021/03/13 11:06:33;;;;;;;0.98;0.65;;;12.40;76.70;;;;;;5074811;28;20179;-51
2021/03/13 11:09:02;;;;;;;1.00;0.80;;;12.30;76.30;;;;;;5085239;28;20178;-52
2021/03/13 11:11:28;;;;;;;1.50;0.60;;;12.40;76.20;;;;;;5084217;28;20179;-55
2021/03/13 11:13:54;;;;;;;0.70;0.60;;;12.40;76.10;;;;;;5070375;28;20183;-55
2021/03/13 11:16:22;;;;;;;1.00;0.60;;;12.30;76.10;;;;;;5072635;28;20530;-56
2021/03/13 11:18:54;;;;;;;1.25;0.60;;;12.40;75.60;;;;;;5078182;28;20203;-53
2021/03/13 11:21:22;;;;;;;0.80;0.50;;;12.20;75.20;;;;;;5074243;28;20264;-53
2021/03/13 11:23:49;;;;;;;2.45;1.20;;;12.50;75.50;;;;;;5084448;28;20286;-53
2021/03/13 11:26:15;;;;;;;2.35;0.60;;;12.30;75.30;;;;;;5076343;28;20545;-51
2021/03/13 11:28:40;;;;;;;1.13;0.57;;;12.30;74.20;;;;;;5067860;28;20203;-53
2021/03/13 11:31:06;;;;;;;1.30;0.60;;;12.60;74.90;;;;;;5070563;28;20945;-53
2021/03/13 11:33:32;;;;;;;0.70;0.60;;;12.50;75.30;;;;;;5079983;28;20181;-53
2021/03/13 11:35:58;;;;;;;1.08;0.70;;;12.60;75.40;;;;;;5086987;28;20658;-52
2021/03/13 11:38:24;;;;;;;0.87;0.67;;;12.50;74.80;;;;;;5075473;28;20208;-54
2021/03/13 11:40:50;;;;;;;0.70;0.63;;;12.70;75.30;;;;;;5079982;28;20815;-54
2021/03/13 11:43:15;;;;;;;0.80;0.70;;;12.80;75.20;;;;;;5081796;28;20344;-51
2021/03/13 11:45:41;;;;;;;1.30;0.73;;;12.50;74.20;;;;;;5078946;28;20278;-55
2021/03/13 11:48:07;;;;;;;1.60;0.77;;;12.50;74.60;;;;;;5075228;28;20373;-52
2021/03/13 11:50:33;;;;;;;1.25;0.88;;;12.50;74.70;;;;;;5079773;28;20180;-51
2021/03/13 11:52:59;;;;;;;1.87;1.17;;;12.60;74.60;;;;;;5082964;28;20518;-53
2021/03/13 11:55:25;;;;;;;1.33;0.67;;;13.00;74.30;;;;;;5076409;28;20199;-54
2021/03/13 11:57:51;;;;;;;0.75;0.68;;;12.90;74.30;;;;;;5080662;28;20973;-53
2021/03/13 12:00:18;;;;;;;2.35;0.60;;;12.90;74.10;;;;;;5086123;28;20203;-52
2021/03/13 12:02:44;;;;;;;1.13;0.73;;;12.90;74.10;;;;;;5078311;28;20263;-52
2021/03/13 12:05:11;;;;;;;0.82;0.65;;;12.90;73.50;;;;;;5067985;28;20219;-51
2021/03/13 12:07:37;;;;;;;1.23;0.70;;;13.00;73.70;;;;;;5084505;28;20267;-52
2021/03/13 12:10:08;;;;;;;1.25;0.88;;;12.80;73.90;;;;;;5085827;28;20181;-53
2021/03/13 12:12:34;;;;;;;0.80;0.60;;;12.90;74.60;;;;;;5071775;28;20176;-55
2021/03/13 12:15:05;;;;;;;1.10;0.67;;;12.80;75.00;;;;;;5085867;28;20241;-54
2021/03/13 12:17:31;;;;;;;1.77;0.70;;;12.70;75.70;;;;;;5085399;28;20233;-53
2021/03/13 12:19:57;;;;;;;0.70;0.60;;;12.70;78.90;;;;;;5086431;28;20598;-54
2021/03/13 12:22:22;;;;;;;1.43;0.80;;;12.60;78.90;;;;;;5080808;28;20498;-52
2021/03/13 12:24:48;;;;;;;0.80;0.70;;;12.50;80.50;;;;;;5086621;28;20237;-52
2021/03/13 12:27:14;;;;;;;1.50;0.70;;;12.30;80.60;;;;;;5077325;28;20667;-51
2021/03/13 12:29:40;;;;;;;1.00;0.90;;;12.50;80.50;;;;;;5067313;28;20202;-51
2021/03/13 12:32:05;;;;;;;0.60;0.60;;;12.70;82.20;;;;;;5069526;28;20230;-54
2021/03/13 12:34:31;;;;;;;0.80;0.70;;;12.80;82.20;;;;;;5080432;28;20183;-55
2021/03/13 12:36:57;;;;;;;1.27;0.60;;;12.70;82.20;;;;;;5071579;28;20515;-54
2021/03/13 12:39:22;;;;;;;1.70;1.00;;;12.70;82.10;;;;;;5080683;28;20651;-55
2021/03/13 12:41:51;;;;;;;1.10;0.87;;;12.70;83.30;;;;;;5077397;28;20187;-53
2021/03/13 12:44:17;;;;;;;0.80;0.60;;;12.40;83.40;;;;;;5080089;28;20695;-52
2021/03/13 12:46:42;;;;;;;1.03;0.93;;;12.60;84.80;;;;;;5075807;28;20188;-52
2021/03/13 12:49:09;;;;;;;1.13;0.67;;;12.80;85.20;;;;;;5072526;28;20238;-51
2021/03/13 12:51:35;;;;;;;0.68;0.65;;;12.90;84.70;;;;;;5070540;28;20569;-53
2021/03/13 12:54:01;;;;;;;0.70;0.60;;;12.70;84.10;;;;;;5075594;28;20207;-55
2021/03/13 12:56:26;;;;;;;0.77;0.67;;;12.60;84.40;;;;;;5064712;28;20641;-53
2021/03/13 12:58:52;;;;;;;1.50;0.83;;;12.30;86.00;;;;;;5083986;28;20202;-52
2021/03/13 13:01:18;;;;;;;1.00;0.77;;;12.40;87.40;;;;;;5072521;28;20192;-53